Time;durP1;ratioP1;P1;durP2;ratioP2;P2;SDS_P1;SDS_P2;PMS_P1;PMS_P2;Temp;Humidity;BMP_temperature;BMP_pressure;BME280_temperature;BME280_humidity;BME280_pressure;Samples;Min_cycle;Max_cycle;Signal;HPM_P1;HPM_P2
2023/10/08 00:01:21;;;;;;;5.63;2.40;;;;;;;21.32;48.16;99444.56;4902180;29;20210;-85
2023/10/08 00:03:58;;;;;;;3.90;2.20;;;;;;;21.26;48.97;99429.38;4902468;29;20643;-85
2023/10/08 00:06:27;;;;;;;6.23;1.97;;;;;;;21.27;49.60;99428.28;4894705;29;20234;-85
2023/10/08 00:09:00;;;;;;;7.20;2.47;;;;;;;21.34;50.08;99429.53;4887834;29;20220;-85
2023/10/08 00:11:30;;;;;;;5.10;2.20;;;;;;;21.31;50.38;99423.88;4886083;29;20231;-85
2023/10/08 00:14:04;;;;;;;9.67;2.57;;;;;;;21.38;50.53;99421.56;4894681;29;20237;-85
2023/10/08 00:16:40;;;;;;;12.17;2.70;;;;;;;21.44;50.49;99404.03;4914526;29;20208;-85
2023/10/08 00:19:15;;;;;;;8.90;2.60;;;;;;;21.42;50.62;99392.63;4891633;29;20214;-85
2023/10/08 00:21:44;;;;;;;9.83;2.43;;;;;;;21.35;50.63;99401.19;4889714;29;20195;-85
2023/10/08 00:24:15;;;;;;;6.30;2.38;;;;;;;21.46;50.38;99410.00;4899705;29;20207;-85
2023/10/08 00:26:47;;;;;;;9.10;3.00;;;;;;;21.56;50.06;99401.66;4881467;29;20237;-85
2023/10/08 00:29:24;;;;;;;9.67;2.60;;;;;;;21.53;49.77;99416.69;4876063;29;20200;-84
2023/10/08 00:31:56;;;;;;;12.70;2.90;;;;;;;21.64;49.20;99406.44;4892776;29;20288;-84
2023/10/08 00:34:27;;;;;;;26.03;3.40;;;;;;;21.65;48.93;99390.91;4910142;29;20201;-85
2023/10/08 00:36:55;;;;;;;13.23;2.97;;;;;;;21.70;48.37;99404.44;4911793;29;20205;-86
2023/10/08 00:39:33;;;;;;;8.87;2.70;;;;;;;21.78;48.19;99392.88;4886009;29;20218;-84
2023/10/08 00:42:04;;;;;;;9.75;2.92;;;;;;;21.60;48.25;99397.25;4880962;29;20220;-85
2023/10/08 00:44:37;;;;;;;10.77;2.80;;;;;;;21.63;47.97;99401.28;4892120;29;20184;-85
2023/10/08 00:47:11;;;;;;;6.23;2.67;;;;;;;21.63;47.72;99388.47;4865578;29;20210;-85
2023/10/08 00:49:48;;;;;;;7.77;3.27;;;;;;;21.46;48.05;99380.03;4894557;29;20582;-85
2023/10/08 00:52:26;;;;;;;6.47;2.63;;;;;;;21.51;48.04;99378.00;4884722;29;20214;-85
2023/10/08 00:55:04;;;;;;;7.25;2.75;;;;;;;21.51;48.13;99378.00;4898188;29;20208;-85
2023/10/08 00:57:36;;;;;;;8.98;2.70;;;;;;;21.56;48.19;99377.13;4874999;29;20217;-85
2023/10/08 01:00:15;;;;;;;7.33;2.80;;;;;;;21.41;48.81;99369.22;4899440;29;20257;-85
2023/10/08 01:02:48;;;;;;;4.63;3.05;;;;;;;21.39;48.95;99377.69;4870497;29;20598;-85
2023/10/08 01:05:23;;;;;;;5.55;2.78;;;;;;;21.43;48.92;99378.69;4879620;29;20238;-85
2023/10/08 01:07:53;;;;;;;9.07;2.80;;;;;;;21.43;48.82;99373.25;4879680;29;20327;-85
2023/10/08 01:10:24;;;;;;;4.63;2.50;;;;;;;21.47;48.93;99376.19;4880911;29;20200;-84
2023/10/08 01:15:30;;;;;;;4.25;2.85;;;;;;;21.42;49.22;99381.72;4880460;29;20208;-84
2023/10/08 01:18:00;;;;;;;4.63;2.88;;;;;;;21.44;49.04;99379.50;4881647;29;20203;-85
2023/10/08 01:20:33;;;;;;;4.43;2.60;;;;;;;21.50;49.10;99378.34;4884258;29;20241;-85
2023/10/08 01:23:10;;;;;;;5.28;2.97;;;;;;;21.55;48.59;99366.53;4885064;29;20214;-84
2023/10/08 01:25:40;;;;;;;5.37;2.87;;;;;;;21.50;48.84;99378.34;4897526;29;20233;-85
2023/10/08 01:28:23;;;;;;;5.63;2.80;;;;;;;21.55;48.97;99399.25;4853266;29;20205;-85
2023/10/08 01:30:55;;;;;;;8.93;2.87;;;;;;;21.57;49.04;99375.22;4867968;29;20580;-85
2023/10/08 01:33:37;;;;;;;5.35;2.88;;;;;;;21.46;49.33;99358.22;4856813;29;20245;-85
2023/10/08 01:36:08;;;;;;;7.53;2.65;;;;;;;21.49;49.69;99339.38;4889201;29;20236;-85
2023/10/08 01:38:37;;;;;;;5.60;2.57;;;;;;;21.41;49.88;99358.31;4864864;29;20349;-84
2023/10/08 01:41:19;;;;;;;4.32;2.55;;;;;;;21.41;49.93;99364.56;4864293;29;20214;-85
2023/10/08 01:43:47;;;;;;;6.15;3.13;;;;;;;21.34;50.07;99355.13;4874352;29;20200;-84
2023/10/08 01:46:31;;;;;;;3.70;2.60;;;;;;;21.29;50.34;99355.22;4883479;29;20250;-84
2023/10/08 01:49:04;;;;;;;4.20;2.73;;;;;;;21.32;50.73;99349.19;4868376;29;20214;-84
2023/10/08 01:51:39;;;;;;;6.32;2.50;;;;;;;21.34;50.85;99355.13;4878304;29;20211;-85
2023/10/08 01:54:13;;;;;;;5.93;2.77;;;;;;;21.31;51.14;99353.03;4853040;29;20297;-84
2023/10/08 01:56:43;;;;;;;4.27;2.63;;;;;;;21.25;51.58;99368.63;4867589;29;20228;-84
2023/10/08 01:59:16;;;;;;;5.35;2.65;;;;;;;21.30;51.75;99354.94;4867767;29;20613;-84
2023/10/08 02:01:46;;;;;;;5.73;2.57;;;;;;;21.31;51.66;99362.00;4881139;29;20205;-84
2023/10/08 02:04:22;;;;;;;4.57;2.93;;;;;;;21.36;51.98;99364.66;4863842;29;20218;-84
2023/10/08 02:06:51;;;;;;;7.13;2.92;;;;;;;21.37;51.94;99355.34;4864221;29;20235;-85
2023/10/08 02:09:26;;;;;;;5.10;2.50;;;;;;;21.47;51.77;99351.66;4862168;29;20223;-85
2023/10/08 02:11:53;;;;;;;3.57;2.40;;;;;;;21.38;52.39;99356.97;4890018;29;20249;-84
2023/10/08 02:14:24;;;;;;;7.53;2.50;;;;;;;21.32;52.90;99339.06;4892615;29;20210;-85
2023/10/08 02:17:03;;;;;;;6.47;2.60;;;;;;;21.24;53.54;99355.28;4900639;29;20217;-83
2023/10/08 02:19:37;;;;;;;4.80;2.60;;;;;;;21.33;53.44;99353.50;4887875;29;20291;-84
2023/10/08 02:22:12;;;;;;;7.50;2.93;;;;;;;21.41;53.99;99356.41;4893011;29;20217;-84
2023/10/08 02:24:39;;;;;;;6.37;2.90;;;;;;;21.31;54.53;99340.22;4888401;29;20234;-84
2023/10/08 02:27:07;;;;;;;5.67;2.80;;;;;;;21.35;54.45;99345.88;4902357;29;20217;-85
2023/10/08 02:29:36;;;;;;;6.60;2.70;;;;;;;21.35;54.68;99354.84;4905284;29;20295;-85
2023/10/08 02:32:09;;;;;;;8.17;2.63;;;;;;;21.28;54.99;99359.03;4901626;29;20201;-85
2023/10/08 02:34:36;;;;;;;7.33;2.57;;;;;;;21.27;55.10;99365.63;4909971;29;20213;-84
2023/10/08 02:37:04;;;;;;;5.27;2.80;;;;;;;21.29;55.47;99352.50;4903417;29;20208;-84
2023/10/08 02:39:34;;;;;;;7.10;3.00;;;;;;;21.10;55.82;99360.66;4887580;29;20256;-83
2023/10/08 02:42:10;;;;;;;7.17;3.37;;;;;;;21.21;55.74;99350.44;4911832;29;20204;-85
2023/10/08 02:44:45;;;;;;;4.77;2.93;;;;;;;21.16;55.98;99342.34;4917787;29;20203;-84
2023/10/08 02:47:20;;;;;;;5.17;2.63;;;;;;;20.98;56.16;99350.22;4888888;29;20255;-84
2023/10/08 02:49:49;;;;;;;7.37;2.90;;;;;;;20.95;56.31;99350.00;4894320;29;20208;-84
2023/10/08 02:52:17;;;;;;;6.77;2.90;;;;;;;20.99;56.27;99367.38;4917195;29;20201;-85
2023/10/08 02:54:54;;;;;;;7.10;2.80;;;;;;;20.86;56.62;99349.81;4899075;29;20248;-85
2023/10/08 02:57:21;;;;;;;5.25;2.65;;;;;;;20.92;56.36;99366.91;4896336;29;20228;-84
2023/10/08 02:59:49;;;;;;;6.28;2.75;;;;;;;20.87;56.55;99356.06;4893357;29;20293;-85
2023/10/08 03:02:21;;;;;;;5.10;2.80;;;;;;;20.93;56.31;99371.25;4891650;29;20216;-85
2023/10/08 03:04:52;;;;;;;4.40;2.77;;;;;;;20.90;56.56;99378.06;4887879;29;20252;-84
2023/10/08 03:07:33;;;;;;;4.40;2.83;;;;;;;20.82;56.64;99373.28;4879458;29;20236;-84
2023/10/08 03:10:06;;;;;;;6.13;2.70;;;;;;;20.79;56.62;99367.63;4869610;29;20216;-85
2023/10/08 03:12:36;;;;;;;5.13;2.40;;;;;;;20.72;57.01;99378.09;4885401;29;20240;-84
2023/10/08 03:15:14;;;;;;;4.33;2.80;;;;;;;20.77;56.70;99380.72;4907191;29;20737;-84
2023/10/08 03:17:54;;;;;;;4.97;3.10;;;;;;;20.77;56.56;99372.53;4877892;29;20198;-85
2023/10/08 03:20:38;;;;;;;4.83;2.97;;;;;;;20.73;56.60;99374.25;4890215;29;20214;-84
2023/10/08 03:23:32;;;;;;;4.13;2.53;;;;;;;20.59;57.39;99371.41;4892870;29;20686;-84
2023/10/08 03:26:28;;;;;;;5.43;2.60;;;;;;;20.47;57.64;99371.84;4904307;29;20647;-85
2023/10/08 03:29:00;;;;;;;4.47;3.00;;;;;;;20.38;58.13;99359.97;4885899;29;20312;-84
2023/10/08 03:31:50;;;;;;;6.77;3.00;;;;;;;20.26;58.44;99377.75;4904833;29;20202;-84
2023/10/08 03:34:23;;;;;;;5.80;2.93;;;;;;;20.30;58.43;99368.75;4879446;29;20216;-84
2023/10/08 03:37:05;;;;;;;8.13;2.80;;;;;;;20.29;58.56;99361.69;4895468;29;20209;-84
2023/10/08 03:39:51;;;;;;;5.63;3.23;;;;;;;20.21;58.89;99357.69;4881239;29;20232;-84
2023/10/08 03:42:26;;;;;;;5.10;2.40;;;;;;;20.30;58.73;99359.75;4908069;29;20202;-84
2023/10/08 03:44:56;;;;;;;5.63;2.70;;;;;;;20.43;58.53;99349.03;4877775;29;20927;-84
2023/10/08 03:47:32;;;;;;;7.57;2.97;;;;;;;20.52;58.51;99347.28;4876089;29;20221;-84
2023/10/08 03:50:09;;;;;;;7.27;3.10;;;;;;;20.36;58.95;99340.41;4883440;29;20203;-84
2023/10/08 03:52:43;;;;;;;7.03;2.50;;;;;;;20.37;59.07;99333.88;4882076;29;20211;-85
2023/10/08 03:55:21;;;;;;;5.67;2.70;;;;;;;20.34;59.27;99355.41;4896231;29;20285;-85
2023/10/08 03:58:01;;;;;;;5.63;2.80;;;;;;;20.40;59.23;99346.88;4866213;29;20702;-85
2023/10/08 04:00:47;;;;;;;6.47;2.70;;;;;;;20.42;59.73;99347.41;4897366;29;20280;-84
2023/10/08 04:03:23;;;;;;;7.40;2.63;;;;;;;20.39;60.03;99350.69;4880693;29;20281;-85
2023/10/08 04:06:14;;;;;;;6.17;2.80;;;;;;;20.57;59.60;99357.31;4881371;29;20243;-85
2023/10/08 04:08:58;;;;;;;5.17;2.97;;;;;;;20.32;60.10;99361.13;4879885;29;20200;-85
2023/10/08 04:11:30;;;;;;;8.10;3.00;;;;;;;20.28;60.38;99361.97;4883317;29;20302;-85
2023/10/08 04:14:02;;;;;;;7.23;2.67;;;;;;;20.26;60.91;99356.81;4896044;29;20564;-85
2023/10/08 04:16:36;;;;;;;6.73;2.90;;;;;;;20.37;60.43;99350.19;4894737;29;20203;-84
2023/10/08 04:19:07;;;;;;;5.40;2.43;;;;;;;20.35;60.91;99368.72;4899957;29;20197;-85
2023/10/08 04:21:34;;;;;;;6.10;2.80;;;;;;;20.18;61.52;99354.72;4897239;29;20196;-84
2023/10/08 04:24:06;;;;;;;5.23;2.73;;;;;;;20.27;61.52;99353.00;4895935;29;20213;-85
2023/10/08 04:26:34;;;;;;;5.03;2.90;;;;;;;20.33;61.35;99335.56;4872805;29;20252;-84
2023/10/08 04:29:06;;;;;;;7.73;2.93;;;;;;;20.44;61.12;99328.88;4878695;29;20200;-85
2023/10/08 04:31:38;;;;;;;5.43;2.43;;;;;;;20.33;61.60;99349.16;4884761;29;20206;-85
2023/10/08 04:34:22;;;;;;;8.20;3.00;;;;;;;20.40;61.59;99329.75;4883860;29;20214;-85
2023/10/08 04:36:54;;;;;;;7.67;3.00;;;;;;;20.39;61.52;99322.72;4889480;29;20310;-85
2023/10/08 04:39:31;;;;;;;6.63;2.90;;;;;;;20.32;61.75;99333.13;4892575;29;20687;-85
2023/10/08 04:42:10;;;;;;;6.47;2.73;;;;;;;20.36;61.93;99332.25;4868794;29;20689;-86
2023/10/08 04:44:41;;;;;;;6.03;2.43;;;;;;;20.45;61.54;99332.41;4871672;29;20217;-86
2023/10/08 04:47:12;;;;;;;5.97;2.43;;;;;;;20.53;61.69;99329.06;4886932;29;20338;-86
2023/10/08 04:49:45;;;;;;;5.17;2.57;;;;;;;20.39;61.96;99306.38;4892829;29;20210;-87
2023/10/08 04:52:14;;;;;;;5.17;2.60;;;;;;;20.37;62.35;99297.69;4896701;29;20200;-88
2023/10/08 04:54:51;;;;;;;5.23;2.60;;;;;;;20.47;61.92;99324.78;4895541;29;20201;-86
2023/10/08 04:57:30;;;;;;;5.73;2.77;;;;;;;20.73;61.14;99308.91;4879087;29;20209;-86
2023/10/08 04:59:58;;;;;;;5.27;2.60;;;;;;;20.50;61.87;99302.41;4874615;29;20666;-87
2023/10/08 05:02:49;;;;;;;6.13;2.60;;;;;;;20.59;61.90;99309.63;4865263;29;20688;-87
2023/10/08 05:15:47;;;;;;;7.17;2.63;;;;;;;20.75;61.37;99333.94;4882772;29;20217;-87
2023/10/08 05:18:37;;;;;;;3.60;2.43;;;;;;;20.67;61.79;99341.63;4880169;29;20213;-87
2023/10/08 05:21:25;;;;;;;6.37;2.80;;;;;;;20.65;61.78;99359.38;4867848;29;20206;-87
2023/10/08 05:24:08;;;;;;;5.97;2.60;;;;;;;20.71;61.76;99355.50;4881700;29;20220;-88
2023/10/08 05:26:59;;;;;;;7.27;2.80;;;;;;;20.67;61.87;99359.09;4905349;29;20722;-86
2023/10/08 05:30:15;;;;;;;5.27;2.60;;;;;;;20.67;61.82;99373.47;4900010;29;20673;-87
2023/10/08 05:32:38;;;;;;;6.53;2.90;;;;;;;20.75;61.60;99370.13;4876316;29;20231;-88
2023/10/08 05:38:12;;;;;;;6.27;2.90;;;;;;;20.80;61.80;99397.28;4887923;29;20198;-87
2023/10/08 06:05:22;;;;;;;6.97;2.77;;;;;;;21.00;60.77;99410.63;4892968;29;20680;-87
2023/10/08 06:13:06;;;;;;;5.53;2.70;;;;;;;20.89;61.59;99405.63;4880984;29;20358;-87
2023/10/08 06:18:28;;;;;;;6.80;3.00;;;;;;;20.82;61.84;99416.03;4907834;29;20201;-87
2023/10/08 06:21:01;;;;;;;6.07;2.93;;;;;;;20.84;61.50;99419.28;4890446;29;20200;-88
2023/10/08 06:23:35;;;;;;;7.20;2.97;;;;;;;20.84;61.73;99425.56;4905002;29;20207;-88
2023/10/08 06:28:38;;;;;;;5.30;2.87;;;;;;;20.95;61.93;99429.75;4907574;29;20205;-88
2023/10/08 06:31:16;;;;;;;5.90;2.80;;;;;;;21.10;61.43;99443.19;4886424;29;20218;-88
2023/10/08 06:33:50;;;;;;;5.13;2.60;;;;;;;21.21;61.17;99449.34;4900435;29;20203;-88
2023/10/08 06:36:24;;;;;;;6.10;2.87;;;;;;;21.16;61.97;99452.13;4892390;29;20290;-88
2023/10/08 06:38:59;;;;;;;6.50;2.90;;;;;;;21.19;61.70;99442.53;4893497;29;20596;-88
2023/10/08 06:41:33;;;;;;;7.87;2.80;;;;;;;21.15;62.10;99447.78;4898245;29;20225;-87
2023/10/08 06:44:19;;;;;;;7.40;3.17;;;;;;;21.19;61.89;99448.00;4886166;29;20683;-88
2023/10/08 06:46:48;;;;;;;5.00;2.60;;;;;;;21.23;61.97;99465.41;4889052;29;20224;-87
2023/10/08 06:49:20;;;;;;;4.90;2.60;;;;;;;21.15;62.24;99458.66;4878976;29;20204;-87
2023/10/08 06:51:54;;;;;;;5.70;2.37;;;;;;;21.16;62.61;99449.41;4904318;29;20209;-87
2023/10/08 06:54:24;;;;;;;7.20;3.17;;;;;;;21.20;62.15;99464.06;4891041;29;20286;-88
2023/10/08 06:56:54;;;;;;;6.43;2.60;;;;;;;21.27;62.52;99464.53;4899899;29;20206;-88
2023/10/08 06:59:31;;;;;;;6.40;2.60;;;;;;;21.19;62.63;99453.44;4872310;29;20278;-88
2023/10/08 07:02:03;;;;;;;5.97;2.80;;;;;;;21.18;62.84;99462.75;4881328;29;20203;-87
2023/10/08 07:04:33;;;;;;;7.00;2.70;;;;;;;21.29;62.89;99473.19;4907234;29;20230;-87
2023/10/08 07:07:09;;;;;;;5.40;3.00;;;;;;;21.44;62.64;99483.06;4897983;29;20234;-89
2023/10/08 07:09:43;;;;;;;7.30;2.80;;;;;;;21.61;62.18;99480.63;4892090;29;20201;-87
2023/10/08 07:12:14;;;;;;;7.20;2.60;;;;;;;21.63;61.86;99483.06;4881782;29;20244;-88
2023/10/08 07:14:43;;;;;;;7.03;2.60;;;;;;;21.69;62.26;99490.06;4888223;29;20262;-88
2023/10/08 07:17:19;;;;;;;6.97;2.90;;;;;;;21.61;62.67;99501.63;4870751;29;20222;-88
2023/10/08 07:19:50;;;;;;;8.63;3.07;;;;;;;21.69;61.48;99504.53;4867803;29;20200;-88
2023/10/08 07:22:28;;;;;;;8.93;2.93;;;;;;;21.83;61.88;99499.13;4868623;29;20869;-87
2023/10/08 07:24:59;;;;;;;6.33;2.50;;;;;;;21.84;61.55;99504.28;4874772;29;20213;-88
2023/10/08 07:27:31;;;;;;;6.80;2.70;;;;;;;21.87;62.27;99500.97;4890472;29;20227;-87
2023/10/08 07:30:02;;;;;;;8.85;3.10;;;;;;;21.91;62.20;99504.72;4873019;29;20206;-88
2023/10/08 07:32:35;;;;;;;5.80;2.72;;;;;;;22.16;61.76;99486.34;4873068;29;20230;-86
2023/10/08 07:37:53;;;;;;;6.65;3.15;;;;;;;22.35;60.79;99481.63;4874256;29;20227;-88
2023/10/08 07:40:28;;;;;;;5.80;2.92;;;;;;;22.66;60.56;99501.81;4868912;29;20248;-86
2023/10/08 07:43:08;;;;;;;7.22;2.80;;;;;;;22.74;60.37;99494.84;4884111;29;20226;-88
2023/10/08 07:45:36;;;;;;;6.95;3.40;;;;;;;22.87;59.79;99512.34;4856526;29;20216;-87
2023/10/08 07:48:22;;;;;;;9.57;3.17;;;;;;;22.80;60.45;99499.94;4856450;29;20770;-88
2023/10/08 07:50:50;;;;;;;7.53;2.90;;;;;;;22.83;59.95;99501.25;4866749;29;20574;-88
2023/10/08 07:53:37;;;;;;;7.95;2.78;;;;;;;22.89;60.54;99493.75;4872962;29;20207;-87
2023/10/08 07:56:08;;;;;;;10.40;2.75;;;;;;;22.97;60.57;99512.16;4852121;29;20306;-87
2023/10/08 07:58:43;;;;;;;4.43;2.90;;;;;;;22.95;60.14;99519.88;4855900;29;20263;-87
2023/10/08 08:04:03;;;;;;;5.82;2.78;;;;;;;23.06;60.04;99515.81;4860115;29;20305;-87
2023/10/08 08:06:33;;;;;;;6.60;2.72;;;;;;;23.03;60.36;99532.81;4886094;29;20246;-88
2023/10/08 08:09:17;;;;;;;6.25;3.03;;;;;;;23.04;60.10;99535.25;4869127;29;20570;-87
2023/10/08 08:11:48;;;;;;;4.90;2.80;;;;;;;23.19;60.53;99547.78;4873463;29;20216;-87
2023/10/08 08:14:24;;;;;;;5.78;3.10;;;;;;;23.33;60.67;99536.84;4904091;29;20255;-87
2023/10/08 08:16:52;;;;;;;5.53;3.20;;;;;;;23.69;59.67;99546.75;4870927;29;20285;-87
2023/10/08 08:19:24;;;;;;;5.80;2.72;;;;;;;24.08;59.31;99546.09;4909443;29;20291;-87
2023/10/08 08:21:54;;;;;;;8.25;2.90;;;;;;;24.34;58.50;99548.25;4885585;29;20195;-87
2023/10/08 08:24:34;;;;;;;5.68;3.20;;;;;;;23.96;58.96;99545.03;4907661;29;20211;-86
2023/10/08 08:27:11;;;;;;;8.63;2.92;;;;;;;24.08;58.93;99550.75;4903404;29;20274;-86
2023/10/08 08:29:46;;;;;;;7.32;2.70;;;;;;;23.74;59.21;99545.00;4896067;29;20236;-87
2023/10/08 08:32:15;;;;;;;7.97;2.92;;;;;;;23.91;58.99;99559.63;4910986;29;20210;-87
2023/10/08 08:34:55;;;;;;;4.68;2.63;;;;;;;23.70;59.60;99563.97;4905884;29;20194;-88
2023/10/08 08:37:29;;;;;;;7.78;2.67;;;;;;;23.46;60.35;99563.41;4884601;29;20207;-87
2023/10/08 08:39:58;;;;;;;9.82;3.20;;;;;;;23.28;60.95;99557.69;4885019;29;20310;-87
2023/10/08 08:42:28;;;;;;;6.78;3.22;;;;;;;23.39;60.75;99560.22;4904233;29;20415;-86
2023/10/08 08:45:00;;;;;;;7.82;2.80;;;;;;;23.56;60.94;99571.38;4889229;29;20198;-87
2023/10/08 08:47:35;;;;;;;5.35;2.70;;;;;;;23.73;60.46;99563.34;4892830;29;20225;-87
2023/10/08 08:50:08;;;;;;;6.68;2.88;;;;;;;23.38;60.86;99577.72;4891190;29;20278;-87
2023/10/08 08:52:41;;;;;;;5.75;3.17;;;;;;;23.19;61.84;99595.03;4881225;29;20206;-86
2023/10/08 08:55:17;;;;;;;6.95;2.63;;;;;;;23.09;62.87;99586.25;4860380;29;20215;-87
2023/10/08 08:57:48;;;;;;;5.97;2.67;;;;;;;23.09;62.75;99589.81;4906137;29;20293;-86
2023/10/08 09:00:17;;;;;;;7.70;2.88;;;;;;;22.93;62.85;99599.38;4895504;29;20202;-87
2023/10/08 09:02:47;;;;;;;5.15;2.80;;;;;;;23.34;62.73;99585.75;4894260;29;20206;-87
2023/10/08 09:05:25;;;;;;;5.00;2.92;;;;;;;23.56;62.61;99612.41;4909360;29;20289;-87
2023/10/08 09:07:58;;;;;;;8.60;3.20;;;;;;;23.76;61.94;99600.19;4892052;29;20222;-86
2023/10/08 09:10:29;;;;;;;6.78;2.95;;;;;;;23.64;61.83;99595.28;4891439;29;20204;-87
2023/10/08 09:13:00;;;;;;;5.22;2.70;;;;;;;23.63;62.43;99596.38;4879998;29;20293;-86
2023/10/08 09:15:29;;;;;;;8.07;3.00;;;;;;;23.57;62.45;99603.88;4887057;29;20218;-86
2023/10/08 09:18:05;;;;;;;6.38;3.03;;;;;;;23.19;63.11;99624.28;4908135;29;20258;-86
2023/10/08 09:20:42;;;;;;;6.32;2.70;;;;;;;22.84;64.56;99628.50;4908964;29;20776;-86
2023/10/08 09:23:13;;;;;;;6.10;2.80;;;;;;;22.39;66.14;99643.72;4881949;29;20214;-87
2023/10/08 09:25:43;;;;;;;6.43;2.90;;;;;;;22.11;66.14;99645.50;4904397;29;20218;-87
2023/10/08 09:28:15;;;;;;;5.35;3.10;;;;;;;21.97;66.81;99654.69;4891125;29;20610;-87
2023/10/08 09:30:44;;;;;;;7.15;2.80;;;;;;;21.63;67.72;99682.91;4886846;29;20810;-87
2023/10/08 09:33:17;;;;;;;4.55;2.58;;;;;;;21.54;67.76;99668.28;4902838;29;20205;-87
2023/10/08 09:35:46;;;;;;;6.70;2.60;;;;;;;21.31;68.50;99688.19;4868760;29;20208;-87
2023/10/08 09:38:22;;;;;;;4.53;2.83;;;;;;;21.13;69.55;99716.13;4892434;29;20206;-87
2023/10/08 09:40:53;;;;;;;5.50;2.43;;;;;;;20.96;70.38;99727.41;4906318;29;20204;-87
2023/10/08 09:43:20;;;;;;;6.03;2.73;;;;;;;20.74;71.30;99741.47;4875676;29;20254;-87
2023/10/08 09:46:14;;;;;;;9.90;1.53;;;;;;;20.08;100.00;99760.88;4879260;29;20669;-87
2023/10/08 09:48:44;;;;;;;4.30;1.13;;;;;;;18.82;100.00;99769.19;4899562;29;20744;-88
2023/10/08 09:51:14;;;;;;;4.87;1.07;;;;;;;18.46;100.00;99785.41;4889203;29;20206;-87
2023/10/08 09:53:58;;;;;;;3.60;0.60;;;;;;;18.09;100.00;99783.91;4880666;29;20228;-86
2023/10/08 09:56:30;;;;;;;1.97;0.70;;;;;;;17.59;100.00;99791.50;4873599;29;20254;-85
2023/10/08 09:59:19;;;;;;;2.53;0.53;;;;;;;17.54;100.00;99790.63;5702819;23;20321;-85
2023/10/08 10:01:50;;;;;;;3.80;0.60;;;;;;;17.40;100.00;99808.41;4907308;29;20205;-86
2023/10/08 13:59:51;;;;;;;1.17;1.00;;;;;;;11.40;100.00;100152.03;4775797;23;20222;-82
